createdAt,value
2024-03-20T00:00:14.257Z,20.08
2024-03-20T00:05:19.704Z,16.88
2024-03-20T00:10:25.002Z,24.10
2024-03-20T00:15:27.033Z,21.15
2024-03-20T00:20:29.947Z,15.63
2024-03-20T00:25:30.184Z,21.13
2024-03-20T00:30:29.200Z,18.30
2024-03-20T00:35:37.337Z,21.88
2024-03-20T00:40:56.637Z,15.82
2024-03-20T00:46:00.141Z,14.88
2024-03-20T00:51:28.139Z,13.48
2024-03-20T00:56:40.531Z,13.65
2024-03-20T01:01:53.883Z,13.68
2024-03-20T01:06:58.702Z,14.73
2024-03-20T01:11:57.195Z,15.77
2024-03-20T01:16:55.510Z,19.48
2024-03-20T01:21:54.413Z,21.75
2024-03-20T01:26:52.394Z,15.65
2024-03-20T01:31:53.123Z,17.88
2024-03-20T01:36:53.213Z,14.00
2024-03-20T01:41:52.699Z,19.23
2024-03-20T01:46:51.085Z,18.70
2024-03-20T01:51:53.672Z,19.27
2024-03-20T01:57:02.468Z,19.13
2024-03-20T02:02:02.833Z,20.77
2024-03-20T02:07:01.543Z,22.58
2024-03-20T02:12:17.148Z,22.75
2024-03-20T02:17:21.483Z,25.98
2024-03-20T02:22:21.159Z,25.92
2024-03-20T02:27:25.740Z,19.23
2024-03-20T02:32:24.019Z,19.75
2024-03-20T02:37:22.492Z,22.05
2024-03-20T02:42:24.359Z,18.13
2024-03-20T02:47:29.721Z,23.00
2024-03-20T02:52:29.462Z,19.23
2024-03-20T02:57:33.247Z,17.15
2024-03-20T03:02:32.001Z,17.23
2024-03-20T03:07:36.435Z,16.00
2024-03-20T03:18:00.626Z,17.95
2024-03-20T03:23:07.112Z,18.02
2024-03-20T03:28:18.720Z,21.00
2024-03-20T03:33:17.310Z,19.88
2024-03-20T03:38:19.303Z,18.17
2024-03-20T03:43:17.582Z,19.50
2024-03-20T03:48:23.250Z,16.67
2024-03-20T03:53:22.560Z,17.20
2024-03-20T03:58:23.931Z,17.20
2024-03-20T04:03:41.944Z,16.10
2024-03-20T04:08:47.659Z,17.08
2024-03-20T04:13:48.158Z,16.05
2024-03-20T04:18:47.166Z,17.70
2024-03-20T04:23:57.574Z,16.60
2024-03-20T04:28:57.558Z,14.95
2024-03-20T04:33:56.167Z,16.73
2024-03-20T04:38:57.819Z,15.25
2024-03-20T04:44:06.181Z,18.48
2024-03-20T04:49:09.299Z,13.27
2024-03-20T04:54:11.776Z,14.40
2024-03-20T04:59:09.668Z,14.30
2024-03-20T05:04:07.530Z,13.02
2024-03-20T05:09:09.097Z,14.77
2024-03-20T05:14:08.537Z,12.50
2024-03-20T05:19:09.246Z,12.80
2024-03-20T05:24:17.446Z,12.73
2024-03-20T05:29:18.669Z,15.50
2024-03-20T05:34:24.141Z,14.18
2024-03-20T05:39:25.372Z,14.30
2024-03-20T05:44:26.886Z,14.70
2024-03-20T05:49:42.625Z,16.35
2024-03-20T05:54:44.104Z,12.35
2024-03-20T05:59:54.158Z,15.93
2024-03-20T06:04:55.168Z,12.98
2024-03-20T06:09:57.098Z,15.15
2024-03-20T06:15:21.725Z,15.32
2024-03-20T06:20:35.229Z,12.27
2024-03-20T06:25:35.667Z,11.07
2024-03-20T06:30:46.825Z,9.80
2024-03-20T06:35:51.366Z,11.73
2024-03-20T06:40:50.267Z,9.95
2024-03-20T06:45:59.296Z,11.50
2024-03-20T06:51:01.190Z,11.13
2024-03-20T06:56:03.025Z,9.27
2024-03-20T07:01:07.128Z,11.82
2024-03-20T07:06:15.358Z,8.75
2024-03-20T07:11:58.907Z,7.97
2024-03-20T07:23:12.336Z,9.25
2024-03-20T07:28:13.711Z,9.40
2024-03-20T07:33:19.985Z,12.98
2024-03-20T07:38:21.788Z,9.50
2024-03-20T07:43:28.519Z,9.38
2024-03-20T07:48:27.538Z,9.45
2024-03-20T07:53:25.441Z,7.35
2024-03-20T07:58:23.206Z,12.27
2024-03-20T08:03:22.212Z,9.57
2024-03-20T08:08:20.542Z,8.07
2024-03-20T08:13:18.191Z,7.35
2024-03-20T08:18:17.742Z,7.85
2024-03-20T08:23:17.880Z,8.07
2024-03-20T08:28:15.906Z,8.05
2024-03-20T08:33:13.125Z,7.95
2024-03-20T11:23:44.488Z,9.70
2024-03-20T11:28:50.727Z,9.63
2024-03-20T11:34:07.618Z,11.93
2024-03-20T11:39:11.527Z,12.52
2024-03-20T11:49:42.813Z,10.27
2024-03-20T11:54:46.232Z,10.35
2024-03-20T11:59:49.113Z,11.85
2024-03-20T12:04:49.503Z,9.80
2024-03-20T12:09:47.940Z,12.05
2024-03-20T12:14:46.599Z,8.65
2024-03-20T12:19:44.386Z,9.80
2024-03-20T12:24:41.964Z,8.68
2024-03-20T12:29:39.995Z,12.30
2024-03-20T12:34:39.517Z,8.07
2024-03-20T12:39:37.219Z,9.88
2024-03-20T12:44:36.581Z,9.35
2024-03-20T12:49:34.756Z,8.43
2024-03-20T12:54:32.239Z,9.15
2024-03-20T12:59:29.892Z,8.13
2024-03-20T13:04:27.051Z,7.88
2024-03-20T13:09:25.246Z,10.00
2024-03-20T13:14:23.288Z,7.57
2024-03-20T13:19:23.629Z,8.88
2024-03-20T13:24:20.919Z,7.20
2024-03-20T13:29:27.821Z,7.45
2024-03-20T13:34:26.703Z,5.88
2024-03-20T13:39:34.538Z,5.65
2024-03-20T13:44:34.140Z,4.95
2024-03-20T13:49:31.426Z,6.13
2024-03-20T13:54:31.967Z,5.93
2024-03-20T13:59:30.651Z,13.60
2024-03-20T14:04:28.849Z,5.43
2024-03-20T14:09:26.770Z,5.00
2024-03-20T14:14:26.263Z,6.75
2024-03-20T14:19:23.467Z,6.68
2024-03-20T14:24:22.788Z,6.15
2024-03-20T14:29:20.060Z,5.93
2024-03-20T14:34:20.914Z,7.50
2024-03-20T14:39:17.987Z,7.57
2024-03-20T14:44:16.232Z,7.40
2024-03-20T14:49:15.619Z,8.90
2024-03-20T14:54:15.246Z,8.07
2024-03-20T14:59:12.857Z,8.90
2024-03-20T15:04:11.662Z,7.03
2024-03-20T15:09:11.594Z,5.05
2024-03-20T15:14:09.577Z,5.13
2024-03-20T15:19:06.859Z,6.68
2024-03-20T15:24:07.098Z,7.00
2024-03-20T15:29:05.430Z,5.30
2024-03-20T15:34:07.294Z,6.63
2024-03-20T15:39:22.133Z,7.40
2024-03-20T15:44:19.455Z,6.13
2024-03-20T15:49:18.728Z,7.28
2024-03-20T15:54:20.217Z,6.93
2024-03-20T15:59:18.018Z,10.77
2024-03-20T16:04:15.283Z,8.82
2024-03-20T16:09:22.212Z,13.55
2024-03-20T16:14:21.384Z,9.80
2024-03-20T16:19:19.868Z,14.13
2024-03-20T16:24:17.183Z,12.32
2024-03-20T16:29:16.862Z,13.43
2024-03-20T16:34:14.934Z,16.85
2024-03-20T16:39:12.419Z,15.70
2024-03-20T16:44:09.773Z,21.20
2024-03-20T16:49:10.422Z,12.45
2024-03-20T16:54:08.661Z,18.40
2024-03-20T16:59:07.515Z,20.75
2024-03-20T17:04:05.230Z,20.08
2024-03-20T17:09:05.401Z,19.92
2024-03-20T17:14:03.875Z,38.95
2024-03-20T17:19:01.122Z,25.73
2024-03-20T17:24:08.650Z,31.98
2024-03-20T17:29:12.319Z,38.28
2024-03-20T17:34:09.645Z,27.05
2024-03-20T17:39:07.730Z,27.33
2024-03-20T17:44:05.113Z,32.00
2024-03-20T17:49:03.611Z,29.40
2024-03-20T17:54:01.825Z,36.72
2024-03-20T17:58:59.133Z,30.05
2024-03-20T18:03:57.133Z,28.67
2024-03-20T18:08:55.165Z,28.05
2024-03-20T18:13:52.582Z,24.27
2024-03-20T18:18:49.853Z,22.85
2024-03-20T18:23:47.646Z,16.23
2024-03-20T18:28:45.717Z,23.67
2024-03-20T18:33:43.375Z,29.83
2024-03-20T18:38:40.776Z,35.55
2024-03-20T18:43:45.510Z,18.52
2024-03-20T18:48:43.570Z,21.57
2024-03-20T18:53:43.811Z,24.60
2024-03-20T18:58:43.459Z,20.17
2024-03-20T19:03:41.064Z,27.13
2024-03-20T19:08:44.030Z,30.60
2024-03-20T19:13:54.436Z,27.83
2024-03-20T19:19:18.432Z,23.08
2024-03-20T19:24:26.229Z,23.73
2024-03-20T19:29:53.611Z,20.42
2024-03-20T19:34:54.377Z,17.70
2024-03-20T19:40:24.092Z,23.13
2024-03-20T19:51:21.918Z,18.30
2024-03-20T19:56:38.099Z,16.48
2024-03-20T20:01:55.011Z,14.10
2024-03-20T20:06:56.788Z,12.95
2024-03-20T20:12:14.209Z,18.10
2024-03-20T20:17:40.179Z,14.98
2024-03-20T20:22:51.456Z,12.10
2024-03-20T20:28:16.129Z,12.15
2024-03-20T20:33:23.114Z,10.75
2024-03-20T20:39:24.216Z,12.00
2024-03-20T20:44:47.692Z,12.25
2024-03-20T20:50:07.280Z,10.93
2024-03-20T20:55:40.576Z,12.32
2024-03-20T21:01:27.627Z,7.72
2024-03-20T21:07:10.097Z,8.20
2024-03-20T21:18:25.872Z,6.82
2024-03-20T21:24:16.175Z,7.25
2024-03-20T21:34:58.948Z,5.97
2024-03-20T21:40:43.924Z,7.68
2024-03-20T21:46:09.209Z,9.43
2024-03-20T21:51:27.004Z,6.85
2024-03-20T21:56:41.836Z,6.55
2024-03-20T22:01:47.538Z,5.90
2024-03-20T22:06:54.572Z,8.55
2024-03-20T22:11:56.923Z,8.23
2024-03-20T22:17:09.013Z,7.50
2024-03-20T22:22:27.482Z,7.75
2024-03-20T22:33:18.039Z,7.18
2024-03-20T22:38:37.304Z,6.65
2024-03-20T22:43:40.028Z,6.43
2024-03-20T22:48:56.413Z,7.93
2024-03-20T22:54:18.224Z,8.88
2024-03-20T22:59:31.101Z,9.00
2024-03-20T23:05:04.819Z,7.72
2024-03-20T23:10:35.051Z,5.90
2024-03-20T23:15:49.869Z,7.63
2024-03-20T23:20:49.943Z,6.22
2024-03-20T23:25:50.652Z,5.47
2024-03-20T23:31:04.660Z,7.22
2024-03-20T23:36:19.552Z,12.77
2024-03-20T23:41:18.842Z,19.90
2024-03-20T23:46:23.238Z,22.13
2024-03-20T23:51:22.698Z,20.25
2024-03-20T23:56:38.653Z,24.00
